Flight Track Log - Related Links

Times and Time Zones

All times are in EDT time to prevent confusion due to time zone crossing. See the EJA122 flight status page for this flight to view local times or setup timezone preferences in your user account.

Time Position Orientation Groundspeed Altitude Reporting Facility
EDT Latitude Longitude Course Direction KTS MPH feet Rate Location/Type
Sun 05:51:19 PM 40.0031 -82.9019 291° West 137 158 1,300  Level Indianapolis Center
Sun 05:52:24 PM 40.0208 -82.9611 291° West 237 273 3,800 1,228 Climbing Indianapolis Center
Sun 05:53:26 PM 40.0950 -82.9722 353° North 261 300 3,900 1,161 Climbing Indianapolis Center
Sun 05:54:28 PM 40.1692 -82.9764 358° North 266 306 6,200 2,683 Climbing Indianapolis Center
Sun 05:55:29 PM 40.2481 -82.9803 358° North 276 318 9,400 2,976 Climbing Indianapolis Center
Sun 05:56:31 PM 40.3453 -82.9828 359° North 293 337 12,300 2,323 Climbing Indianapolis Center
Sun 05:57:33 PM 40.4331 -82.9825 360° North 310 357 14,200 1,756 Climbing Indianapolis Center
Sun 05:58:34 PM 40.5272 -82.9767 North 330 380 15,900 1,805 Climbing Indianapolis Center
Sun 05:59:36 PM 40.6086 -83.0247 336° Northwest 320 368 17,900 1,984 Climbing Indianapolis Center
Sun 06:00:38 PM 40.6806 -83.0864 327° Northwest 308 354 20,000 1,951 Climbing Indianapolis Center
Sun 06:01:39 PM 40.7544 -83.1486 327° Northwest 311 358 21,900 976 Climbing Indianapolis Center
Sun 06:02:41 PM 40.8331 -83.2156 327° Northwest 330 380 22,000 48 Climbing Indianapolis Center
Sun 06:03:43 PM 40.9247 -83.2922 328° Northwest 379 436 22,000  Level Indianapolis Center
Sun 06:04:41 PM 41.0150 -83.3708 327° Northwest 395 455 22,000  Level Cleveland Center
Sun 06:05:46 PM 41.1167 -83.4572 327° Northwest 411 473 22,000  Level Indianapolis Center
Sun 06:06:40 PM 41.2067 -83.5392 326° Northwest 409 471 22,000  Level Cleveland Center
Sun 06:07:40 PM 41.3067 -83.6239 328° Northwest 414 476 22,000  Level Cleveland Center
Sun 06:08:40 PM 41.4044 -83.7089 327° Northwest 414 476 22,000  Level Cleveland Center
Sun 06:09:40 PM 41.5042 -83.7969 327° Northwest 419 482 22,000  Level Cleveland Center
Sun 06:10:40 PM 41.6081 -83.8825 328° Northwest 424 488 22,000  Level Cleveland Center
Sun 06:11:41 PM 41.7075 -83.9711 326° Northwest 424 488 22,000  Level Cleveland Center
Sun 06:12:40 PM 41.8072 -84.0600 326° Northwest 424 488 22,000 -202 Level Cleveland Center
Sun 06:13:40 PM 41.9086 -84.1464 328° Northwest 424 488 21,600 -1,200 Descending Cleveland Center
Sun 06:14:40 PM 42.0019 -84.2328 325° Northwest 418 481 19,600 -2,100 Descending Cleveland Center
Sun 06:15:40 PM 42.1014 -84.3167 328° Northwest 401 461 17,400 -2,050 Descending Cleveland Center
Sun 06:16:40 PM 42.1703 -84.3825 325° Northwest 364 419 15,500 -1,950 Descending Cleveland Center
Sun 06:17:40 PM 42.2536 -84.4464 330° Northwest 352 405 13,500 -2,200 Descending Cleveland Center
Sun 06:18:40 PM 42.3514 -84.4494 359° North 334 384 11,100 -2,231 Descending Cleveland Center
Sun 06:19:41 PM 42.4328 -84.4489 360° North 320 368 9,000 -2,331 Descending Cleveland Center
Sun 06:20:41 PM 42.5017 -84.4475 North 279 321 6,400 -2,622 Descending Cleveland Center
Sun 06:21:40 PM 42.5642 -84.4483 359° North 243 280 3,800 -1,714 Descending Cleveland Center
Sun 06:22:40 PM 42.6225 -84.4519 357° North 219 252 3,000 -397 Descending Cleveland Center
Sun 06:23:41 PM 42.6844 -84.4672 350° North 207 238 3,000 -300 Level Cleveland Center
Sun 06:24:40 PM 42.7317 -84.4900 340° North 180 207 2,400 -600 Descending Cleveland Center
Sun 06:25:41 PM 42.7728 -84.5094 341° North 166 191 1,800 4,264 Descending Cleveland Center
Sun 06:26:41 PM 42.8133 -84.5347 335° Northwest 166 191 11,000 9,200 Climbing Cleveland Center
Sun 06:28:00 PM 42.7786 -84.5862 346° North  Level Estimated
Sun 06:35:00 PM 42.7786 -84.5862 346° North  Level Estimated
Sun 06:36:00 PM 42.7786 -84.5862 346° North  Level Estimated
Sun 06:37:00 PM 42.7786 -84.5862 346° North  Level Estimated

Login

Don't have an account? Register now (free) for customized features, flight alerts, and more!